Time,TemperatureF,DewpointF,PressureIn,WindDirection,WindDirectionDegrees,WindSpeedMPH,WindSpeedGustMPH,Humidity,HourlyPrecipIn,Conditions,Clouds,dailyrainin,SoftwareType,DateUTC
2013-06-07 00:03:00,76.0,76.0,29.83,SW,228,1.0,7.0,100,0.00,,,3.05,,2013-06-07 04:03:00,
2013-06-07 00:12:00,76.0,76.0,29.82,SW,221,3.0,10.0,100,0.00,,,3.03,,2013-06-07 04:12:00,
2013-06-07 00:23:00,76.0,76.0,29.82,SW,221,3.0,10.0,100,0.00,,,3.03,,2013-06-07 04:23:00,
2013-06-07 00:33:00,76.0,76.0,29.82,SW,221,3.0,10.0,100,0.00,,,3.03,,2013-06-07 04:33:00,
2013-06-07 00:42:00,76.0,76.0,29.82,SW,221,3.0,10.0,100,0.00,,,3.03,,2013-06-07 04:42:00,
2013-06-07 00:53:00,76.0,76.0,29.82,SW,225,2.0,9.0,100,0.00,,,3.03,,2013-06-07 04:53:00,
2013-06-07 01:03:00,76.0,76.0,29.82,West,263,3.0,5.0,100,0.00,,,3.03,,2013-06-07 05:03:00,
2013-06-07 01:12:00,76.0,76.0,29.82,West,263,3.0,5.0,100,0.00,,,3.03,,2013-06-07 05:12:00,
2013-06-07 01:22:00,76.0,76.0,29.82,SW,233,4.0,9.0,100,0.00,,,2.96,,2013-06-07 05:22:00,
2013-06-07 01:32:00,76.0,76.0,29.82,WSW,254,4.0,8.0,100,0.00,,,2.96,,2013-06-07 05:32:00,
2013-06-07 01:42:00,76.0,76.0,29.82,WSW,254,4.0,8.0,100,0.00,,,2.96,,2013-06-07 05:42:00,
2013-06-07 01:52:00,75.0,75.0,29.83,SSW,202,2.0,5.0,100,0.00,,,2.96,,2013-06-07 05:52:00,
2013-06-07 02:02:00,76.0,76.0,29.83,SSW,210,2.0,4.0,100,0.00,,,2.96,,2013-06-07 06:02:00,
2013-06-07 02:12:00,76.0,76.0,29.83,SSW,210,2.0,4.0,100,0.00,,,2.96,,2013-06-07 06:12:00,
2013-06-07 02:22:00,76.0,76.0,29.82,WSW,241,2.0,11.0,100,0.00,,,2.50,,2013-06-07 06:22:00,
2013-06-07 02:32:00,76.0,76.0,29.81,WSW,251,2.0,6.0,100,0.00,,,2.50,,2013-06-07 06:32:00,
2013-06-07 02:42:00,76.0,76.0,29.81,WSW,251,2.0,6.0,100,0.00,,,2.50,,2013-06-07 06:42:00,
2013-06-07 02:52:00,75.0,75.0,29.81,SW,236,1.0,6.0,100,0.00,,,2.50,,2013-06-07 06:52:00,
2013-06-07 03:02:00,75.0,75.0,29.81,SSW,193,2.0,6.0,100,0.00,,,2.50,,2013-06-07 07:02:00,
2013-06-07 03:12:00,75.0,75.0,29.81,SSW,193,2.0,6.0,100,0.00,,,2.50,,2013-06-07 07:12:00,
2013-06-07 03:22:00,75.0,75.0,29.81,SSW,208,1.0,4.0,100,0.00,,,2.27,,2013-06-07 07:22:00,
2013-06-07 03:32:00,75.0,75.0,29.80,SSW,204,1.0,3.0,100,0.00,,,2.27,,2013-06-07 07:32:00,
2013-06-07 03:42:00,75.0,75.0,29.80,SSW,204,1.0,3.0,100,0.00,,,2.27,,2013-06-07 07:42:00,
2013-06-07 03:52:00,75.0,75.0,29.81,SSW,209,2.0,3.0,100,0.00,,,2.27,,2013-06-07 07:52:00,
2013-06-07 04:02:00,75.0,75.0,29.80,SSW,211,0.0,4.0,100,0.00,,,2.27,,2013-06-07 08:02:00,
2013-06-07 04:12:00,75.0,75.0,29.80,SSW,211,0.0,4.0,100,0.00,,,2.27,,2013-06-07 08:12:00,
2013-06-07 04:22:00,75.0,75.0,29.80,SW,231,2.0,2.0,100,0.00,,,1.73,,2013-06-07 08:22:00,
2013-06-07 04:32:00,74.0,74.0,29.80,SSW,202,0.0,3.0,100,0.00,,,1.73,,2013-06-07 08:32:00,
2013-06-07 04:43:00,74.0,74.0,29.80,SSW,202,0.0,3.0,100,0.00,,,1.73,,2013-06-07 08:43:00,
2013-06-07 04:52:00,74.0,74.0,29.80,SSW,202,0.0,0.0,100,0.00,,,1.73,,2013-06-07 08:52:00,
2013-06-07 05:02:00,75.0,75.0,29.81,SSW,205,1.0,2.0,100,0.00,,,1.73,,2013-06-07 09:02:00,
2013-06-07 05:12:00,75.0,75.0,29.81,SSW,205,1.0,2.0,100,0.00,,,1.73,,2013-06-07 09:12:00,
2013-06-07 05:22:00,75.0,75.0,29.82,SW,218,0.0,4.0,100,0.00,,,1.22,,2013-06-07 09:22:00,
2013-06-07 05:32:00,75.0,75.0,29.83,SSW,208,0.0,3.0,100,0.00,,,1.22,,2013-06-07 09:32:00,
2013-06-07 05:43:00,75.0,75.0,29.83,SSW,208,0.0,3.0,100,0.00,,,1.22,,2013-06-07 09:43:00,
2013-06-07 05:53:00,75.0,75.0,29.83,SSW,208,0.0,1.0,100,0.00,,,1.22,,2013-06-07 09:53:00,
2013-06-07 06:02:00,74.0,74.0,29.84,SSW,210,0.0,3.0,100,0.00,,,1.22,,2013-06-07 10:02:00,
2013-06-07 06:13:00,74.0,74.0,29.84,SSW,210,0.0,3.0,100,0.00,,,1.22,,2013-06-07 10:13:00,
2013-06-07 06:23:00,75.0,75.0,29.85,SW,227,1.0,4.0,100,0.00,,,0.96,,2013-06-07 10:23:00,
2013-06-07 06:33:00,74.0,74.0,29.85,SW,227,0.0,2.0,100,0.00,,,0.96,,2013-06-07 10:33:00,
2013-06-07 06:42:00,74.0,74.0,29.85,SW,227,0.0,2.0,100,0.00,,,0.96,,2013-06-07 10:42:00,
2013-06-07 06:52:00,74.0,74.0,29.85,SW,228,0.0,2.0,100,0.00,,,0.96,,2013-06-07 10:52:00,
2013-06-07 07:02:00,74.0,74.0,29.86,SW,225,0.0,2.0,100,0.00,,,0.96,,2013-06-07 11:02:00,
2013-06-07 07:12:00,74.0,74.0,29.86,SW,225,0.0,2.0,100,0.00,,,0.96,,2013-06-07 11:12:00,
2013-06-07 07:22:00,74.0,74.0,29.87,SSW,208,0.0,3.0,100,0.00,,,0.64,,2013-06-07 11:22:00,
2013-06-07 07:32:00,74.0,74.0,29.87,SSW,207,0.0,2.0,100,0.00,,,0.64,,2013-06-07 11:32:00,
2013-06-07 07:42:00,74.0,74.0,29.87,SSW,207,0.0,2.0,100,0.00,,,0.64,,2013-06-07 11:42:00,
2013-06-07 07:52:00,76.0,76.0,29.88,SSW,207,2.0,3.0,100,0.00,,,0.64,,2013-06-07 11:52:00,
2013-06-07 08:02:00,77.0,77.0,29.88,SSE,149,1.0,4.0,100,0.00,,,0.64,,2013-06-07 12:02:00,
2013-06-07 08:12:00,77.0,77.0,29.88,SSE,149,1.0,4.0,100,0.00,,,0.64,,2013-06-07 12:12:00,
2013-06-07 08:22:00,77.0,77.0,29.89,SSW,196,1.0,5.0,100,0.00,,,0.64,,2013-06-07 12:22:00,
2013-06-07 08:32:00,78.0,78.0,29.89,SSW,196,1.0,7.0,100,0.00,,,0.33,,2013-06-07 12:32:00,
2013-06-07 08:42:00,78.0,78.0,29.89,SSW,196,1.0,7.0,100,0.00,,,0.33,,2013-06-07 12:42:00,
2013-06-07 08:52:00,78.0,78.0,29.88,SSW,196,4.0,7.0,100,0.00,,,0.33,,2013-06-07 12:52:00,
2013-06-07 09:02:00,79.0,79.0,29.90,SSW,200,4.0,8.0,100,0.00,,,0.33,,2013-06-07 13:02:00,
2013-06-07 09:13:00,79.0,79.0,29.90,SSW,200,4.0,8.0,100,0.00,,,0.33,,2013-06-07 13:13:00,
2013-06-07 09:22:00,79.0,79.0,29.91,SSW,199,2.0,6.0,100,0.00,,,0.03,,2013-06-07 13:22:00,
2013-06-07 09:32:00,79.0,79.0,29.91,SSW,199,2.0,6.0,100,0.00,,,0.03,,2013-06-07 13:32:00,
2013-06-07 09:42:00,79.0,79.0,29.91,SSW,199,2.0,6.0,100,0.00,,,0.03,,2013-06-07 13:42:00,
2013-06-07 09:52:00,81.0,81.0,29.91,South,191,8.0,10.0,100,0.00,,,0.03,,2013-06-07 13:52:00,
2013-06-07 10:02:00,82.0,82.0,29.92,South,190,2.0,10.0,100,0.00,,,0.03,,2013-06-07 14:02:00,
2013-06-07 10:13:00,82.0,82.0,29.92,South,190,2.0,10.0,100,0.00,,,0.03,,2013-06-07 14:13:00,
2013-06-07 10:23:00,82.0,82.0,29.93,SSW,195,6.0,8.0,100,0.00,,,0.00,,2013-06-07 14:23:00,
2013-06-07 10:33:00,81.0,81.0,29.93,SW,221,6.0,11.0,100,0.00,,,0.00,,2013-06-07 14:33:00,
2013-06-07 10:42:00,83.0,83.0,29.93,SSW,208,6.0,8.0,100,0.00,,,0.00,,2013-06-07 14:42:00,
2013-06-07 10:52:00,83.0,83.0,29.93,SSW,208,6.0,8.0,100,0.00,,,0.00,,2013-06-07 14:52:00,
2013-06-07 11:33:00,85.0,85.0,29.94,SSW,195,3.0,10.0,100,0.00,,,0.00,,2013-06-07 15:33:00,
2013-06-07 11:53:00,84.0,84.0,29.94,SW,233,2.0,9.0,100,0.00,,,0.00,,2013-06-07 15:53:00,
2013-06-07 12:03:00,86.0,86.0,29.94,SSW,204,4.0,10.0,100,0.00,,,0.00,,2013-06-07 16:03:00,
2013-06-07 12:22:00,87.0,87.0,29.96,South,186,7.0,10.0,100,0.00,,,0.00,,2013-06-07 16:22:00,
2013-06-07 12:33:00,86.0,86.0,29.96,SSW,208,5.0,7.0,100,0.00,,,0.00,,2013-06-07 16:33:00,
2013-06-07 12:53:00,86.0,86.0,29.95,SSW,202,8.0,10.0,100,0.00,,,0.00,,2013-06-07 16:53:00,
2013-06-07 13:03:00,87.0,87.0,29.95,South,182,6.0,9.0,100,0.00,,,0.00,,2013-06-07 17:03:00,
2013-06-07 13:32:00,89.0,89.0,29.94,SSW,212,8.0,12.0,100,0.00,,,0.00,,2013-06-07 17:32:00,
2013-06-07 13:53:00,85.0,85.0,29.94,SSW,203,3.0,9.0,100,0.00,,,0.00,,2013-06-07 17:53:00,
2013-06-07 14:09:00,87.0,87.0,29.93,WSW,243,3.0,9.0,100,0.00,,,0.00,,2013-06-07 18:09:00,
2013-06-07 14:26:00,87.0,87.0,29.93,South,176,4.0,9.0,100,0.00,,,0.00,,2013-06-07 18:26:00,
2013-06-07 14:35:00,90.0,90.0,29.93,SSW,212,4.0,7.0,100,0.00,,,0.00,,2013-06-07 18:35:00,
2013-06-07 15:00:00,88.0,88.0,29.92,SSE,156,3.0,8.0,100,0.00,,,0.00,,2013-06-07 19:00:00,
2013-06-07 15:08:00,89.0,89.0,29.92,SSW,195,5.0,7.0,100,0.00,,,0.00,,2013-06-07 19:08:00,
2013-06-07 15:29:00,89.0,89.0,29.93,SW,223,4.0,7.0,100,0.00,,,0.00,,2013-06-07 19:29:00,
2013-06-07 15:59:00,86.0,86.0,29.93,SSW,193,3.0,6.0,100,0.00,,,0.00,,2013-06-07 19:59:00,
2013-06-07 16:07:00,89.0,89.0,29.93,SSW,201,4.0,4.0,100,0.00,,,0.00,,2013-06-07 20:07:00,
2013-06-07 16:16:00,89.0,89.0,29.93,SW,224,2.0,6.0,100,0.00,,,0.00,,2013-06-07 20:16:00,
2013-06-07 16:26:00,89.0,89.0,29.93,SW,224,2.0,6.0,100,0.00,,,0.00,,2013-06-07 20:26:00,
2013-06-07 16:38:00,88.0,88.0,29.93,SSW,213,4.0,6.0,100,0.00,,,0.00,,2013-06-07 20:38:00,
2013-06-07 16:58:00,88.0,88.0,29.92,SW,216,3.0,9.0,100,0.00,,,0.00,,2013-06-07 20:58:00,
2013-06-07 17:05:00,89.0,89.0,29.92,SW,233,2.0,7.0,100,0.00,,,0.00,,2013-06-07 21:05:00,
2013-06-07 17:28:00,90.0,90.0,29.92,SSW,194,2.0,3.0,100,0.00,,,0.00,,2013-06-07 21:28:00,
2013-06-07 17:39:00,88.0,88.0,29.91,SW,219,1.0,3.0,100,0.00,,,0.00,,2013-06-07 21:39:00,
2013-06-07 18:08:00,89.0,89.0,29.92,SSW,192,3.0,4.0,100,0.00,,,0.00,,2013-06-07 22:08:00,
2013-06-07 18:28:00,89.0,89.0,29.92,SW,214,4.0,4.0,100,0.00,,,0.00,,2013-06-07 22:28:00,
2013-06-07 19:00:00,86.0,86.0,29.93,SSW,199,2.0,5.0,100,0.00,,,0.00,,2013-06-07 23:00:00,
2013-06-07 19:09:00,87.0,87.0,29.92,South,191,3.0,5.0,100,0.00,,,0.00,,2013-06-07 23:09:00,
2013-06-07 19:30:00,85.0,85.0,29.93,South,190,4.0,7.0,100,0.00,,,0.00,,2013-06-07 23:30:00,
2013-06-07 19:37:00,83.0,83.0,29.92,South,173,2.0,6.0,100,0.00,,,0.00,,2013-06-07 23:37:00,
2013-06-07 20:04:00,83.0,83.0,29.92,South,172,4.0,7.0,100,0.00,,,0.00,,2013-06-08 00:04:00,
2013-06-07 20:18:00,81.0,81.0,29.92,SSE,165,1.0,3.0,100,0.00,,,0.00,,2013-06-08 00:18:00,
2013-06-07 20:34:00,81.0,81.0,29.93,SSE,150,1.0,3.0,100,0.00,,,0.00,,2013-06-08 00:34:00,
2013-06-07 20:45:00,81.0,81.0,29.93,SSE,150,1.0,3.0,100,0.00,,,0.00,,2013-06-08 00:45:00,
2013-06-07 21:01:00,81.0,81.0,29.93,South,176,1.0,3.0,100,0.00,,,0.00,,2013-06-08 01:01:00,
2013-06-07 21:07:00,80.0,80.0,29.93,SSE,168,1.0,4.0,100,0.00,,,0.00,,2013-06-08 01:07:00,
2013-06-07 21:18:00,80.0,80.0,29.93,South,170,3.0,3.0,100,0.00,,,0.00,,2013-06-08 01:18:00,
2013-06-07 21:28:00,80.0,80.0,29.93,South,170,3.0,3.0,100,0.00,,,0.00,,2013-06-08 01:28:00,
2013-06-07 21:38:00,80.0,80.0,29.94,SSE,158,3.0,4.0,100,0.00,,,0.00,,2013-06-08 01:38:00,
2013-06-07 22:02:00,80.0,80.0,29.94,SE,135,4.0,4.0,100,0.00,,,0.00,,2013-06-08 02:02:00,
2013-06-07 22:09:00,80.0,80.0,29.95,SSE,159,4.0,5.0,100,0.00,,,0.00,,2013-06-08 02:09:00,
2013-06-07 22:15:00,80.0,80.0,29.96,SE,145,2.0,2.0,100,0.00,,,0.00,,2013-06-08 02:15:00,
2013-06-07 22:29:00,80.0,80.0,29.96,SE,145,2.0,2.0,100,0.00,,,0.00,,2013-06-08 02:29:00,
2013-06-07 22:35:00,79.0,79.0,29.96,SSE,148,3.0,5.0,100,0.00,,,0.00,,2013-06-08 02:35:00,
2013-06-07 22:47:00,79.0,79.0,29.96,South,172,2.0,5.0,100,0.00,,,0.00,,2013-06-08 02:47:00,
2013-06-07 22:59:00,79.0,79.0,29.96,South,172,2.0,5.0,100,0.00,,,0.00,,2013-06-08 02:59:00,
2013-06-07 23:09:00,79.0,79.0,29.96,South,175,4.0,5.0,100,0.00,,,0.00,,2013-06-08 03:09:00,
2013-06-07 23:17:00,79.0,79.0,29.96,South,175,4.0,5.0,100,0.00,,,0.00,,2013-06-08 03:17:00,
2013-06-07 23:27:00,79.0,79.0,29.96,SSE,155,2.0,3.0,100,0.00,,,0.00,,2013-06-08 03:27:00,
2013-06-07 23:37:00,79.0,79.0,29.97,SSE,165,2.0,3.0,100,0.00,,,0.00,,2013-06-08 03:37:00,
2013-06-07 23:52:00,79.0,79.0,29.97,SSE,165,2.0,3.0,100,0.00,,,0.00,,2013-06-08 03:52:00,